Archival Weather

Sydney Intl

Sydney, Australia (YSSY)

Report from: Friday, September 22, 2023 6:00 AM AEST
Current time: Sunday, February 25, 2024 2:11 AM AEDT

Current weather – Weather history – Daily summaries
Weather forecast

Temperature12.0°C (53.6°F)
Dew point10.0°C (50.0°F)
Winds 7 kts (3.6 m/s, 8.1 mph) Vrb
Winds variableWinds variable from South-Southeast (160°) to West-Southwest (240°)
Visibility6.2 mi. (10 km)
Clouds Few clouds 3,000 ft. (914 m)
Scattered clouds 6,000 ft. (1,829 m)
Altimeter30.33 in.Hg (1027 mB)
Relative humidity88 %
Density altitude-647 ft. (-197 m)
Remarks Special weather observation
Flight conditions Visual Meteorological Conditions
Raw dataSPAU31 KWBC 212031 SPECI YSSY 212000Z 22007KT 160V240 9999 FEW030 SCT060 12/10 Q1027
An error has occurred. This application may no longer respond until reloaded. Reload 🗙